Alton, Maine
Current Conditions -  °F | °C
As of 8:53 PM on Friday 24 Oct 2014 (Local Time) from KBGR Reporting Station
Light Rain Light Rain  
Wind Chill:   Ceiling: 1100
Heat Index:   Visibility: 8mi
Dew Point:   Wind: 16mph
Humidity: 89%   Direction: 340°NNW
Pressure: 29.68"   Gusts: 23mph
Location:  45.0236°N, 68.7394°W
Report Text: KBGR 250053Z 34014G20KT 8SM -RA BKN011 OVC013 07/05 A2968 RMK AO2 SLP050 P0002 T00670050
Loading
Personal Weather Stations






























Interactive Weather Map
Tropical Storm Tracking
New forecast layout! Learn more

10-Day Weather Forecast

Advertisements
Track Severe Weather on mobile